Time;durP1;ratioP1;P1;durP2;ratioP2;P2;SDS_P1;SDS_P2;PMS_P1;PMS_P2;Temp;Humidity;BMP_temperature;BMP_pressure;BME280_temperature;BME280_humidity;BME280_pressure;Samples;Min_cycle;Max_cycle;Signal;HPM_P1;HPM_P2
2023/01/10 00:00:10;;;;;;;19.25;4.80;;;5.70;99.90;;;;;;5051874;28;20071;-64
2023/01/10 00:02:36;;;;;;;14.40;4.00;;;5.60;99.90;;;;;;5053091;28;20048;-64
2023/01/10 00:05:01;;;;;;;18.38;4.25;;;5.60;99.90;;;;;;5051861;28;20079;-64
2023/01/10 00:07:27;;;;;;;13.60;3.72;;;5.60;99.90;;;;;;5051758;28;20442;-64
2023/01/10 00:09:53;;;;;;;13.35;4.47;;;5.60;99.90;;;;;;5052151;28;20083;-64
2023/01/10 00:15:03;;;;;;;19.95;5.13;;;5.60;99.90;;;;;;5052994;28;20128;-64
2023/01/10 00:17:28;;;;;;;12.70;3.47;;;5.60;99.90;;;;;;5053218;28;20123;-64
2023/01/10 00:19:54;;;;;;;22.67;4.72;;;5.60;99.90;;;;;;5051072;28;20045;-64
2023/01/10 00:22:23;;;;;;;16.52;3.72;;;5.60;99.90;;;;;;5051618;28;20041;-64
2023/01/10 00:24:49;;;;;;;12.35;4.32;;;5.60;99.90;;;;;;5052601;28;20075;-64
2023/01/10 00:27:21;;;;;;;13.65;3.72;;;5.60;99.90;;;;;;5050652;28;20478;-64
2023/01/10 00:29:47;;;;;;;13.38;3.85;;;5.70;99.90;;;;;;5035263;28;20390;-64
2023/01/10 00:32:13;;;;;;;16.27;5.88;;;5.70;99.90;;;;;;5051289;28;20055;-64
2023/01/10 00:34:38;;;;;;;20.10;5.40;;;5.80;99.90;;;;;;5050528;28;20417;-64
2023/01/10 00:37:04;;;;;;;19.90;4.25;;;5.70;99.90;;;;;;5052584;28;20478;-64
2023/01/10 00:39:30;;;;;;;20.73;5.55;;;5.80;99.90;;;;;;5051406;28;20041;-64
2023/01/10 00:44:40;;;;;;;16.10;4.88;;;5.80;99.90;;;;;;5052222;28;20048;-64
2023/01/10 00:47:05;;;;;;;28.30;5.35;;;5.80;99.90;;;;;;5052056;28;20045;-64
2023/01/10 00:49:31;;;;;;;19.30;4.47;;;5.70;99.90;;;;;;5034379;28;20041;-64
2023/01/10 00:51:58;;;;;;;17.30;4.22;;;5.80;99.90;;;;;;5051310;28;20072;-64
2023/01/10 00:54:24;;;;;;;14.95;3.42;;;5.70;99.90;;;;;;5049963;28;20045;-64
2023/01/10 00:56:50;;;;;;;17.58;5.57;;;5.70;99.90;;;;;;5050684;28;20051;-64
2023/01/10 00:59:16;;;;;;;22.70;5.72;;;5.70;99.90;;;;;;5034260;28;20036;-64
2023/01/10 01:01:41;;;;;;;15.13;4.10;;;5.70;99.90;;;;;;5051458;28;20447;-64
2023/01/10 01:04:07;;;;;;;15.68;5.15;;;5.70;99.90;;;;;;5034007;28;20037;-65
2023/01/10 01:06:33;;;;;;;14.63;4.38;;;5.70;99.90;;;;;;5050940;28;20036;-64
2023/01/10 01:08:58;;;;;;;19.58;4.38;;;5.70;99.90;;;;;;5050532;28;20068;-64
2023/01/10 01:11:24;;;;;;;21.60;5.32;;;5.70;99.90;;;;;;5051584;28;20040;-64
2023/01/10 01:13:50;;;;;;;22.02;4.28;;;5.70;99.90;;;;;;5034072;28;20067;-64
2023/01/10 01:16:16;;;;;;;22.15;4.43;;;5.70;99.90;;;;;;5051357;28;20417;-64
2023/01/10 01:18:42;;;;;;;15.15;4.18;;;5.60;99.90;;;;;;5050664;28;20128;-64
2023/01/10 01:21:08;;;;;;;20.95;4.28;;;5.60;99.90;;;;;;5050848;28;20125;-64
2023/01/10 01:23:34;;;;;;;18.52;4.97;;;5.60;99.90;;;;;;5049787;28;20052;-64
2023/01/10 01:26:00;;;;;;;15.65;3.95;;;5.70;99.90;;;;;;5052063;28;20475;-64
2023/01/10 01:28:26;;;;;;;14.73;4.28;;;5.70;99.90;;;;;;5050433;28;20064;-64
2023/01/10 01:30:51;;;;;;;12.40;4.15;;;5.70;99.90;;;;;;5049772;28;20124;-64
2023/01/10 01:33:18;;;;;;;13.07;3.45;;;5.70;99.90;;;;;;5050495;28;20178;-64
2023/01/10 01:35:46;;;;;;;13.75;4.30;;;5.80;99.90;;;;;;5050757;28;20049;-64
2023/01/10 01:38:13;;;;;;;19.52;5.32;;;5.90;99.90;;;;;;5049707;28;20068;-64
2023/01/10 01:40:40;;;;;;;12.75;4.30;;;6.00;99.90;;;;;;5050463;28;20037;-64
2023/01/10 01:43:58;;;;;;;9.77;3.67;;;6.00;99.90;;;;;;5051831;28;20375;-64
2023/01/10 01:46:23;;;;;;;11.02;3.05;;;6.00;99.90;;;;;;5025850;28;20456;-64
2023/01/10 01:48:49;;;;;;;10.07;3.22;;;6.00;99.90;;;;;;5051544;28;20116;-64
2023/01/10 01:51:21;;;;;;;8.80;2.75;;;6.00;99.90;;;;;;5049553;28;20716;-64
2023/01/10 01:54:10;;;;;;;9.80;2.55;;;6.10;99.90;;;;;;5051614;28;20336;-64
2023/01/10 01:56:50;;;;;;;14.30;3.53;;;6.10;99.90;;;;;;5050341;28;20072;-64
2023/01/10 01:59:22;;;;;;;8.98;3.15;;;6.10;99.90;;;;;;5049528;28;20041;-64
2023/01/10 02:01:51;;;;;;;8.63;2.10;;;6.20;99.90;;;;;;5050681;28;20048;-64
2023/01/10 02:04:26;;;;;;;10.55;2.50;;;6.20;99.90;;;;;;5049799;28;20513;-64
2023/01/10 02:06:53;;;;;;;;;;;6.20;99.90;;;;;;5053295;28;20048;-64
2023/01/10 02:09:33;;;;;;;8.07;2.33;;;6.10;99.90;;;;;;5054133;28;19927;-64
2023/01/10 02:11:59;;;;;;;8.48;2.38;;;6.10;99.90;;;;;;5053703;28;20528;-64
2023/01/10 02:14:25;;;;;;;7.95;2.00;;;6.10;99.90;;;;;;5055161;28;20382;-64
2023/01/10 02:16:51;;;;;;;8.18;2.20;;;6.10;99.90;;;;;;5055340;28;20091;-65
2023/01/10 02:19:31;;;;;;;7.10;2.47;;;6.10;99.90;;;;;;5054391;28;20037;-64
2023/01/10 02:22:00;;;;;;;8.18;2.00;;;6.10;99.90;;;;;;5053932;28;20045;-64
2023/01/10 02:24:57;;;;;;;14.25;3.05;;;6.10;99.90;;;;;;5054624;28;20441;-64
2023/01/10 02:27:36;;;;;;;11.82;3.22;;;6.10;99.90;;;;;;5054240;28;20098;-64
2023/01/10 02:30:32;;;;;;;12.35;2.95;;;6.10;99.90;;;;;;5055416;28;20067;-64
2023/01/10 02:33:09;;;;;;;14.82;3.92;;;6.10;99.90;;;;;;5053640;28;20048;-64
2023/01/10 02:35:38;;;;;;;14.32;3.25;;;6.20;99.90;;;;;;5053428;28;20502;-64
2023/01/10 02:38:06;;;;;;;11.77;3.72;;;6.10;99.90;;;;;;5055065;28;20041;-64
2023/01/10 02:41:08;;;;;;;11.23;3.08;;;6.10;99.90;;;;;;5054241;28;20041;-64
2023/01/10 02:43:38;;;;;;;10.93;3.65;;;6.10;99.90;;;;;;5022377;28;20053;-64
2023/01/10 02:46:14;;;;;;;11.35;3.53;;;6.10;99.90;;;;;;5053268;28;20041;-64
2023/01/10 02:48:42;;;;;;;15.32;4.15;;;6.10;99.90;;;;;;5052813;28;20040;-64
2023/01/10 02:51:29;;;;;;;15.43;4.78;;;6.10;99.90;;;;;;5053586;28;20041;-64
2023/01/10 02:54:07;;;;;;;14.98;3.17;;;6.10;99.90;;;;;;5053059;28;20417;-64
2023/01/10 02:56:55;;;;;;;11.35;3.10;;;6.20;99.90;;;;;;5054350;28;20037;-64
2023/01/10 02:59:40;;;;;;;10.80;3.17;;;6.20;99.90;;;;;;5053220;28;20501;-64
2023/01/10 03:02:06;;;;;;;8.25;2.45;;;6.20;99.90;;;;;;5052449;28;20139;-64
2023/01/10 03:04:38;;;;;;;14.98;3.03;;;6.20;99.90;;;;;;5053316;28;20139;-65
2023/01/10 03:07:13;;;;;;;11.50;3.13;;;6.20;99.90;;;;;;5053251;28;20548;-66
2023/01/10 03:10:09;;;;;;;13.10;2.83;;;6.20;99.90;;;;;;5053388;28;20048;-66
2023/01/10 03:12:45;;;;;;;;;;;6.20;99.90;;;;;;5053370;28;20108;-65
2023/01/10 03:15:15;;;;;;;16.13;4.10;;;6.20;99.90;;;;;;5035784;28;20385;-65
2023/01/10 03:17:44;;;;;;;11.77;3.08;;;6.20;99.90;;;;;;5052511;28;20048;-66
2023/01/10 03:20:10;;;;;;;13.77;3.55;;;6.20;99.90;;;;;;5053929;28;20489;-66
2023/01/10 03:22:39;;;;;;;12.23;2.92;;;6.20;99.90;;;;;;5051773;28;20175;-66
2023/01/10 03:25:08;;;;;;;12.43;3.47;;;6.20;99.90;;;;;;5052534;28;20401;-66
2023/01/10 03:28:05;;;;;;;9.75;2.88;;;6.20;99.90;;;;;;5052934;28;20063;-66
2023/01/10 03:30:48;;;;;;;10.07;2.70;;;6.10;99.90;;;;;;5052061;28;20477;-66
2023/01/10 03:33:19;;;;;;;14.05;2.95;;;6.10;99.90;;;;;;5052626;28;20474;-66
2023/01/10 03:35:48;;;;;;;17.13;4.38;;;6.10;99.90;;;;;;5052180;28;20397;-66
2023/01/10 03:38:31;;;;;;;14.52;3.50;;;6.10;99.90;;;;;;5053487;28;20094;-66
2023/01/10 03:41:13;;;;;;;13.18;4.40;;;6.10;99.90;;;;;;5053575;28;20119;-66
2023/01/10 03:46:53;;;;;;;15.60;3.72;;;6.10;99.90;;;;;;5053709;28;20048;-66
2023/01/10 03:49:21;;;;;;;17.25;4.55;;;6.10;99.90;;;;;;5053611;28;20041;-66
2023/01/10 03:51:48;;;;;;;17.27;5.20;;;6.20;99.90;;;;;;5052390;28;20033;-66
2023/01/10 03:54:15;;;;;;;13.20;4.40;;;6.20;99.90;;;;;;5052401;28;20363;-65
2023/01/10 03:56:49;;;;;;;27.13;4.95;;;6.20;99.90;;;;;;5035821;28;20087;-65
2023/01/10 03:59:19;;;;;;;21.77;4.85;;;6.20;99.90;;;;;;5051764;28;20048;-66
2023/01/10 04:01:45;;;;;;;17.50;4.82;;;6.20;99.90;;;;;;5035288;28;20049;-66
2023/01/10 04:04:11;;;;;;;16.33;4.32;;;6.20;99.90;;;;;;5034824;28;20075;-65
2023/01/10 04:06:37;;;;;;;15.57;4.13;;;6.20;99.90;;;;;;5052906;28;20111;-65
2023/01/10 04:09:03;;;;;;;16.50;4.70;;;6.20;99.90;;;;;;5052006;28;20041;-65
2023/01/10 04:11:29;;;;;;;16.55;3.90;;;6.20;99.90;;;;;;5052725;28;20124;-65
2023/01/10 04:13:54;;;;;;;12.85;4.10;;;6.20;99.90;;;;;;5052690;28;20120;-65
2023/01/10 04:16:20;;;;;;;20.95;7.10;;;6.20;99.90;;;;;;5052996;28;20037;-65
2023/01/10 04:18:46;;;;;;;18.15;4.32;;;6.30;99.90;;;;;;5034331;28;20072;-65
2023/01/10 04:21:11;;;;;;;15.48;3.88;;;6.20;99.90;;;;;;5051458;28;20037;-65
2023/01/10 04:23:37;;;;;;;16.50;4.15;;;6.20;99.90;;;;;;5052813;28;20057;-65
2023/01/10 04:26:03;;;;;;;16.10;4.53;;;6.20;99.90;;;;;;5051111;28;20052;-65
2023/01/10 04:28:28;;;;;;;22.70;4.65;;;6.10;99.90;;;;;;5051666;28;20049;-65
2023/01/10 04:30:54;;;;;;;15.52;5.35;;;6.10;99.90;;;;;;5050910;28;20041;-65
2023/01/10 04:33:20;;;;;;;17.13;5.28;;;6.10;99.90;;;;;;5051931;28;20037;-65
2023/01/10 04:35:50;;;;;;;11.45;3.92;;;6.10;99.90;;;;;;5051392;28;20482;-65
2023/01/10 04:38:16;;;;;;;18.73;5.40;;;6.20;99.90;;;;;;5052433;28;20485;-65
2023/01/10 04:40:42;;;;;;;17.77;5.43;;;6.20;99.90;;;;;;5050354;28;20044;-65
2023/01/10 04:43:09;;;;;;;14.20;4.18;;;6.20;99.90;;;;;;5051537;28;20046;-65
2023/01/10 04:45:36;;;;;;;14.90;4.38;;;6.30;99.90;;;;;;5051114;28;20119;-65
2023/01/10 04:48:02;;;;;;;19.08;3.85;;;6.30;99.90;;;;;;5050611;28;20094;-66
2023/01/10 04:50:28;;;;;;;9.57;3.00;;;6.30;99.90;;;;;;5034766;28;20055;-66
2023/01/10 04:52:54;;;;;;;11.10;3.20;;;6.30;99.90;;;;;;5050869;28;20029;-66
2023/01/10 04:55:19;;;;;;;12.88;3.90;;;6.30;99.90;;;;;;5051493;28;20044;-65
2023/01/10 04:57:45;;;;;;;12.68;3.80;;;6.30;99.90;;;;;;5034416;28;20045;-66
2023/01/10 05:00:12;;;;;;;21.45;4.63;;;6.30;99.90;;;;;;5051622;28;20111;-66
2023/01/10 05:02:42;;;;;;;12.85;3.95;;;6.20;99.90;;;;;;5050601;28;20120;-66
2023/01/10 05:05:09;;;;;;;19.58;4.63;;;6.30;99.90;;;;;;5051274;28;20040;-66
2023/01/10 05:07:36;;;;;;;19.80;4.88;;;6.20;99.90;;;;;;5051614;28;20440;-66
2023/01/10 05:10:02;;;;;;;16.23;5.03;;;6.30;99.90;;;;;;5050952;28;20098;-66
2023/01/10 05:12:28;;;;;;;20.77;5.32;;;6.30;99.90;;;;;;5051023;28;20106;-66
2023/01/10 05:14:53;;;;;;;17.83;4.60;;;6.30;99.90;;;;;;5051162;28;20466;-66
2023/01/10 05:17:19;;;;;;;19.92;4.85;;;6.40;99.90;;;;;;5050625;28;20098;-65
2023/01/10 05:19:45;;;;;;;11.80;3.83;;;6.40;99.90;;;;;;5051027;28;20067;-66
2023/01/10 05:22:11;;;;;;;16.17;4.28;;;6.30;99.90;;;;;;5033210;28;20041;-66
2023/01/10 05:24:36;;;;;;;18.67;5.15;;;6.40;99.90;;;;;;5050500;28;20502;-66
2023/01/10 05:27:02;;;;;;;12.75;4.20;;;6.30;99.90;;;;;;5052097;28;20091;-66
2023/01/10 05:29:27;;;;;;;20.58;5.40;;;6.40;99.90;;;;;;5050114;28;20071;-65
2023/01/10 05:31:53;;;;;;;13.93;4.53;;;6.40;99.90;;;;;;5051771;28;20044;-66
2023/01/10 05:34:19;;;;;;;24.60;4.55;;;6.40;99.90;;;;;;5050676;28;20519;-65
2023/01/10 05:36:45;;;;;;;16.55;4.60;;;6.40;99.90;;;;;;5049562;28;20116;-65
2023/01/10 05:39:12;;;;;;;15.00;3.58;;;6.40;99.90;;;;;;5050452;28;20170;-65
2023/01/10 05:41:39;;;;;;;18.20;4.88;;;6.40;99.90;;;;;;5053322;28;20045;-65
2023/01/10 05:44:05;;;;;;;14.30;3.70;;;6.30;99.90;;;;;;5055151;28;20486;-65
2023/01/10 05:46:31;;;;;;;14.40;3.00;;;6.30;99.90;;;;;;5055022;28;20167;-65
2023/01/10 05:48:57;;;;;;;10.45;2.92;;;6.30;99.90;;;;;;5054465;28;20537;-65
2023/01/10 05:51:22;;;;;;;10.60;2.58;;;6.20;99.90;;;;;;5053637;28;20048;-65
2023/01/10 05:53:48;;;;;;;12.15;2.60;;;6.20;99.90;;;;;;5055853;28;20072;-65
2023/01/10 05:56:14;;;;;;;9.35;2.65;;;6.20;99.90;;;;;;5055700;28;20037;-65
2023/01/10 05:58:40;;;;;;;9.15;2.47;;;6.10;99.90;;;;;;5055139;28;20045;-65
2023/01/10 06:01:06;;;;;;;10.25;2.60;;;6.10;99.90;;;;;;5055575;28;20055;-65
2023/01/10 06:03:32;;;;;;;17.10;3.17;;;6.10;99.90;;;;;;5053884;28;20041;-65
2023/01/10 06:05:58;;;;;;;14.30;2.83;;;6.10;99.90;;;;;;5053949;28;20037;-65
2023/01/10 06:08:24;;;;;;;13.13;2.83;;;6.10;99.90;;;;;;5055622;28;20040;-65
2023/01/10 06:10:49;;;;;;;16.55;3.58;;;6.10;99.90;;;;;;5036768;28;20044;-66
2023/01/10 06:13:15;;;;;;;12.63;2.80;;;6.10;99.90;;;;;;5055313;28;20033;-65
2023/01/10 06:15:42;;;;;;;12.18;3.33;;;6.20;99.90;;;;;;5054225;28;20482;-65
2023/01/10 06:18:07;;;;;;;14.07;3.85;;;6.10;99.90;;;;;;5054750;28;20041;-65
2023/01/10 06:20:34;;;;;;;15.77;3.90;;;6.10;99.90;;;;;;5053931;28;20048;-65
2023/01/10 06:23:03;;;;;;;17.55;4.95;;;6.00;99.90;;;;;;5055448;28;20052;-65
2023/01/10 06:25:32;;;;;;;13.20;3.58;;;5.90;99.90;;;;;;5053109;28;20568;-65
2023/01/10 06:27:58;;;;;;;20.35;4.55;;;5.90;99.90;;;;;;5054278;28;20099;-65
2023/01/10 06:30:24;;;;;;;14.95;4.15;;;5.90;99.90;;;;;;5054089;28;20048;-65
2023/01/10 06:32:49;;;;;;;15.65;3.95;;;5.80;99.90;;;;;;5052750;28;20037;-65
2023/01/10 06:35:16;;;;;;;16.77;4.85;;;5.70;99.90;;;;;;5055124;28;20106;-65
2023/01/10 06:37:43;;;;;;;11.93;4.70;;;5.70;99.90;;;;;;5053489;28;20041;-65
2023/01/10 06:40:09;;;;;;;14.98;4.90;;;5.70;99.90;;;;;;5054009;28;20052;-65
2023/01/10 06:42:35;;;;;;;17.60;4.07;;;5.70;99.90;;;;;;5053389;28;20131;-65
2023/01/10 06:45:01;;;;;;;12.77;3.60;;;5.70;99.90;;;;;;5053672;28;20053;-65
2023/01/10 06:47:27;;;;;;;19.02;5.10;;;5.70;99.90;;;;;;5052735;28;20041;-65
2023/01/10 06:49:53;;;;;;;15.68;4.03;;;5.70;99.90;;;;;;5054770;28;20573;-65
2023/01/10 06:52:18;;;;;;;16.27;4.15;;;5.80;99.90;;;;;;5052694;28;20049;-65
2023/01/10 06:54:44;;;;;;;15.95;4.53;;;5.80;99.90;;;;;;5052725;28;20102;-65
2023/01/10 06:57:10;;;;;;;20.27;6.32;;;5.80;99.90;;;;;;5053166;28;20554;-65
2023/01/10 06:59:35;;;;;;;23.90;5.75;;;5.80;99.90;;;;;;5053217;28;20045;-65
2023/01/10 07:02:01;;;;;;;15.05;4.75;;;5.80;99.90;;;;;;5053969;28;20052;-65
2023/01/10 07:04:27;;;;;;;14.18;5.10;;;5.80;99.90;;;;;;5053159;28;20109;-65
2023/01/10 07:06:53;;;;;;;23.85;6.43;;;5.90;99.90;;;;;;5053918;28;20041;-65
2023/01/10 07:09:19;;;;;;;17.35;6.10;;;5.90;99.90;;;;;;5054068;28;20467;-65
2023/01/10 07:11:44;;;;;;;21.85;5.80;;;5.90;99.90;;;;;;5053207;28;20124;-65
2023/01/10 07:14:10;;;;;;;27.95;6.95;;;5.80;99.90;;;;;;5052400;28;20470;-65
2023/01/10 07:16:36;;;;;;;20.05;5.30;;;5.80;99.90;;;;;;5054212;28;20037;-65
2023/01/10 07:19:01;;;;;;;19.80;5.38;;;5.80;99.90;;;;;;5054369;28;20044;-65
2023/01/10 07:21:27;;;;;;;16.55;5.50;;;5.80;99.90;;;;;;5053249;28;20029;-65
2023/01/10 07:23:53;;;;;;;16.77;5.55;;;5.80;99.90;;;;;;5052554;28;20462;-65
2023/01/10 07:26:19;;;;;;;20.52;5.38;;;5.80;99.90;;;;;;5052550;28;20128;-65
2023/01/10 07:28:52;;;;;;;25.70;6.85;;;5.80;99.90;;;;;;5052189;28;20051;-65
2023/01/10 07:31:19;;;;;;;26.67;6.40;;;5.80;99.90;;;;;;5053924;28;20116;-65
2023/01/10 07:33:45;;;;;;;27.98;6.45;;;5.80;99.90;;;;;;5053869;28;20037;-65
2023/01/10 07:36:10;;;;;;;28.85;6.80;;;5.80;99.90;;;;;;5051838;28;20111;-65
2023/01/10 07:38:37;;;;;;;27.02;7.13;;;5.80;99.90;;;;;;5053810;28;20375;-65
2023/01/10 07:41:03;;;;;;;18.48;5.85;;;5.80;99.90;;;;;;5053912;28;20508;-65
2023/01/10 07:43:30;;;;;;;25.90;7.07;;;5.90;99.90;;;;;;5051689;28;20506;-65
2023/01/10 07:46:06;;;;;;;24.65;6.10;;;5.90;99.90;;;;;;5052219;28;20041;-65
2023/01/10 07:48:32;;;;;;;24.60;5.93;;;5.90;99.90;;;;;;5052839;28;20040;-65
2023/01/10 07:50:59;;;;;;;26.83;7.18;;;5.90;99.90;;;;;;5053040;28;20033;-65
2023/01/10 07:53:26;;;;;;;31.08;7.57;;;5.90;99.90;;;;;;5052039;28;20041;-65
2023/01/10 07:55:52;;;;;;;19.83;6.00;;;5.90;99.90;;;;;;5052220;28;20478;-65
2023/01/10 07:58:18;;;;;;;25.48;7.57;;;5.90;99.90;;;;;;5051435;28;20086;-65
2023/01/10 08:00:45;;;;;;;26.00;6.60;;;5.90;99.90;;;;;;5051863;28;20486;-65
2023/01/10 08:03:11;;;;;;;28.67;7.22;;;5.90;99.90;;;;;;5051127;28;20102;-64
2023/01/10 08:05:37;;;;;;;25.05;7.32;;;5.90;99.90;;;;;;5051016;28;20052;-64
2023/01/10 08:08:12;;;;;;;25.75;6.70;;;5.90;99.90;;;;;;5053606;28;20037;-65
2023/01/10 08:10:39;;;;;;;;;;;6.00;99.90;;;;;;5051564;28;20474;-65
2023/01/10 08:13:05;;;;;;;24.55;5.90;;;6.00;99.90;;;;;;5052773;28;19924;-65
2023/01/10 08:15:31;;;;;;;20.55;6.43;;;6.00;99.90;;;;;;5068472;28;20474;-65
2023/01/10 08:18:01;;;;;;;19.08;5.40;;;6.10;99.90;;;;;;5048028;28;20048;-65
2023/01/10 08:20:27;;;;;;;28.73;6.78;;;6.10;99.90;;;;;;5049671;28;20116;-65
2023/01/10 08:22:55;;;;;;;27.95;6.25;;;6.10;99.90;;;;;;5050542;28;20091;-65
2023/01/10 08:25:21;;;;;;;22.23;5.50;;;6.10;99.90;;;;;;5046680;28;20056;-65
2023/01/10 08:27:46;;;;;;;21.30;5.88;;;6.00;99.90;;;;;;5049149;28;20045;-64
2023/01/10 08:30:12;;;;;;;15.38;4.90;;;6.00;99.90;;;;;;5048864;28;20060;-64
2023/01/10 08:32:38;;;;;;;21.17;6.10;;;5.90;99.90;;;;;;5047979;28;20390;-65
2023/01/10 08:35:05;;;;;;;19.95;6.82;;;6.00;99.90;;;;;;5049419;28;20481;-64
2023/01/10 08:37:30;;;;;;;18.15;6.28;;;5.90;99.90;;;;;;5048915;28;20052;-64
2023/01/10 08:39:56;;;;;;;20.83;5.60;;;5.90;99.90;;;;;;5047743;28;20041;-64
2023/01/10 08:42:22;;;;;;;18.73;6.03;;;5.90;99.90;;;;;;5047267;28;20471;-65
2023/01/10 08:44:47;;;;;;;23.45;5.90;;;5.90;99.90;;;;;;5045671;28;20049;-65
2023/01/10 08:47:14;;;;;;;16.05;5.90;;;5.90;99.90;;;;;;5046731;28;20049;-65
2023/01/10 08:49:39;;;;;;;19.20;7.10;;;5.90;99.90;;;;;;5032160;28;20037;-65
2023/01/10 08:52:05;;;;;;;22.27;6.32;;;5.90;99.90;;;;;;5048198;28;20064;-64
2023/01/10 08:54:32;;;;;;;18.15;6.60;;;6.00;99.90;;;;;;5031963;28;20059;-64
2023/01/10 08:56:58;;;;;;;24.35;5.85;;;5.90;99.90;;;;;;5048943;28;20057;-64
2023/01/10 08:59:23;;;;;;;18.20;5.60;;;6.00;99.90;;;;;;5031161;28;20075;-64
2023/01/10 09:01:49;;;;;;;29.13;6.95;;;6.10;99.90;;;;;;5047191;28;20520;-65
2023/01/10 09:04:16;;;;;;;16.50;4.57;;;6.20;99.90;;;;;;5047476;28;20041;-64
2023/01/10 09:06:41;;;;;;;21.98;6.35;;;6.20;99.90;;;;;;5048341;28;20109;-65
2023/01/10 09:09:08;;;;;;;26.50;5.75;;;6.30;99.90;;;;;;5031242;28;20120;-64
2023/01/10 09:11:34;;;;;;;16.80;5.55;;;6.40;99.90;;;;;;5047019;28;20451;-64
2023/01/10 09:14:00;;;;;;;20.70;5.43;;;6.40;99.90;;;;;;5048656;28;20095;-65
2023/01/10 09:16:25;;;;;;;19.10;5.80;;;6.40;99.90;;;;;;5046564;28;20037;-64
2023/01/10 09:18:51;;;;;;;22.05;5.85;;;6.40;99.90;;;;;;5047465;28;20032;-65
2023/01/10 09:21:16;;;;;;;11.82;4.90;;;6.40;99.90;;;;;;5046533;28;20502;-65
2023/01/10 09:23:43;;;;;;;20.35;5.35;;;6.40;99.90;;;;;;5048805;28;20061;-65
2023/01/10 09:26:10;;;;;;;16.38;5.10;;;6.40;99.90;;;;;;5045850;28;20071;-65
2023/01/10 09:28:35;;;;;;;16.40;4.72;;;6.50;99.90;;;;;;5046305;28;20041;-64
2023/01/10 09:31:03;;;;;;;16.88;4.68;;;6.50;99.90;;;;;;5048053;28;20041;-64
2023/01/10 09:33:30;;;;;;;15.98;5.13;;;6.40;99.90;;;;;;5047346;28;20490;-64
2023/01/10 09:35:59;;;;;;;17.60;6.10;;;6.50;99.90;;;;;;5045682;28;20045;-64
2023/01/10 09:38:25;;;;;;;14.00;4.28;;;6.50;99.90;;;;;;5047237;28;20068;-64
2023/01/10 09:41:25;;;;;;;17.73;4.82;;;6.50;99.90;;;;;;5049268;28;20516;-64
2023/01/10 09:44:10;;;;;;;17.17;3.97;;;6.60;99.90;;;;;;5030012;28;20041;-64
2023/01/10 09:46:41;;;;;;;14.57;4.30;;;6.60;99.90;;;;;;5047685;28;20129;-64
2023/01/10 09:49:29;;;;;;;15.77;3.47;;;6.70;99.90;;;;;;5045160;28;20036;-65
2023/01/10 09:51:56;;;;;;;18.45;4.90;;;6.70;99.90;;;;;;5049283;28;20049;-64
2023/01/10 09:54:34;;;;;;;17.02;4.85;;;6.80;99.90;;;;;;5049558;28;20040;-65
2023/01/10 09:57:00;;;;;;;16.98;4.10;;;6.80;99.90;;;;;;5048055;28;20053;-65
2023/01/10 09:59:36;;;;;;;19.63;5.45;;;6.80;99.90;;;;;;5047851;28;20567;-65
2023/01/10 10:02:35;;;;;;;13.68;3.97;;;6.90;99.90;;;;;;5048199;28;20079;-65
2023/01/10 10:05:12;;;;;;;22.25;5.05;;;6.90;99.90;;;;;;5049189;28;20048;-64
2023/01/10 10:07:38;;;;;;;16.95;5.13;;;6.90;99.90;;;;;;5031487;28;20076;-63
2023/01/10 10:10:06;;;;;;;16.42;5.70;;;6.90;99.90;;;;;;5045202;28;20158;-65
2023/01/10 10:12:31;;;;;;;18.38;5.13;;;7.00;99.90;;;;;;5048574;28;20045;-64
2023/01/10 10:15:31;;;;;;;18.00;5.28;;;7.00;99.90;;;;;;5047550;28;20444;-64
2023/01/10 10:18:03;;;;;;;18.83;4.85;;;7.10;99.90;;;;;;5044252;28;20043;-64
2023/01/10 10:20:46;;;;;;;14.75;4.53;;;7.00;99.90;;;;;;5028314;28;20049;-64
2023/01/10 10:23:26;;;;;;;24.08;6.05;;;7.10;99.90;;;;;;5047300;28;20485;-65
2023/01/10 10:25:56;;;;;;;20.92;6.18;;;7.10;99.90;;;;;;5044469;28;20128;-64
2023/01/10 10:28:31;;;;;;;15.60;5.15;;;7.20;99.90;;;;;;5046873;28;20041;-64
2023/01/10 10:31:20;;;;;;;15.32;4.80;;;7.20;99.90;;;;;;5051631;28;20116;-64
2023/01/10 10:33:56;;;;;;;23.60;5.65;;;7.20;99.90;;;;;;5050857;28;20039;-64
2023/01/10 10:36:37;;;;;;;17.35;5.38;;;7.20;99.90;;;;;;5052458;28;20045;-64
2023/01/10 10:39:05;;;;;;;23.27;5.28;;;7.20;99.90;;;;;;5051743;28;20048;-64
2023/01/10 10:41:39;;;;;;;16.20;5.30;;;7.20;99.90;;;;;;5050808;28;20048;-65
2023/01/10 10:44:34;;;;;;;22.63;5.07;;;7.30;99.90;;;;;;5034369;28;20045;-64
2023/01/10 10:47:00;;;;;;;19.27;4.50;;;7.30;99.90;;;;;;5051723;28;20041;-65
2023/01/10 10:49:46;;;;;;;17.02;5.35;;;7.30;99.90;;;;;;5051838;28;20055;-65
2023/01/10 10:52:43;;;;;;;21.13;4.85;;;7.30;99.90;;;;;;5029696;28;20777;-64
2023/01/10 10:55:15;;;;;;;18.98;5.30;;;7.40;99.90;;;;;;5042375;28;20048;-64
2023/01/10 10:57:43;;;;;;;24.70;4.82;;;7.40;99.90;;;;;;5050637;28;20057;-64
2023/01/10 11:00:14;;;;;;;17.08;4.63;;;7.40;99.90;;;;;;5050203;28;20090;-64
2023/01/10 11:02:49;;;;;;;20.90;5.20;;;7.40;99.90;;;;;;5051578;28;20044;-64
2023/01/10 11:05:40;;;;;;;17.98;5.50;;;7.40;99.90;;;;;;5050365;28;20120;-64
2023/01/10 11:08:12;;;;;;;24.42;5.00;;;7.50;99.90;;;;;;5049925;28;20101;-64
2023/01/10 11:10:38;;;;;;;14.60;4.45;;;7.40;99.90;;;;;;5049817;28;20033;-64
2023/01/10 11:13:16;;;;;;;14.60;4.78;;;7.40;99.90;;;;;;5049487;28;20041;-63
2023/01/10 11:15:45;;;;;;;21.60;5.38;;;7.40;99.90;;;;;;5035352;28;20588;-64
2023/01/10 11:18:16;;;;;;;27.40;5.82;;;7.40;99.90;;;;;;5053499;28;20052;-64
2023/01/10 11:21:00;;;;;;;20.77;4.88;;;7.40;99.90;;;;;;5051600;28;20045;-65
2023/01/10 11:23:48;;;;;;;21.55;5.38;;;7.40;99.90;;;;;;5036148;28;20521;-66
2023/01/10 11:26:26;;;;;;;19.35;6.13;;;7.40;99.90;;;;;;5052746;28;20083;-65
2023/01/10 11:29:04;;;;;;;21.02;5.07;;;7.40;99.90;;;;;;5051743;28;20091;-65
2023/01/10 11:31:31;;;;;;;28.63;6.75;;;7.40;99.90;;;;;;5050845;28;20125;-64
2023/01/10 11:33:58;;;;;;;14.02;4.65;;;7.40;99.90;;;;;;5052008;28;20033;-63
2023/01/10 11:36:24;;;;;;;17.02;5.18;;;7.40;99.90;;;;;;5051749;28;20049;-64
2023/01/10 11:39:01;;;;;;;20.15;5.03;;;7.30;99.90;;;;;;5053067;28;20064;-64
2023/01/10 11:41:32;;;;;;;18.42;5.75;;;7.40;99.90;;;;;;5053011;28;20045;-64
2023/01/10 11:44:21;;;;;;;18.02;4.85;;;7.40;99.90;;;;;;5053053;28;20087;-64
2023/01/10 11:46:48;;;;;;;17.58;6.07;;;7.30;99.90;;;;;;5052345;28;20060;-64
2023/01/10 11:49:39;;;;;;;19.08;6.00;;;7.30;99.90;;;;;;5052973;28;20045;-65
2023/01/10 11:52:26;;;;;;;18.85;5.68;;;7.30;99.90;;;;;;5050215;28;20056;-64
2023/01/10 11:54:55;;;;;;;28.90;7.25;;;7.30;99.90;;;;;;5035487;28;20081;-64
2023/01/10 11:57:27;;;;;;;20.05;5.78;;;7.30;99.90;;;;;;5052392;28;20561;-64
2023/01/10 12:00:06;;;;;;;19.42;6.07;;;7.20;99.90;;;;;;5052314;28;20045;-64
2023/01/10 12:02:40;;;;;;;21.63;6.93;;;7.20;99.90;;;;;;5052698;28;20037;-64
2023/01/10 12:05:10;;;;;;;20.60;7.85;;;7.20;99.90;;;;;;5052158;28;20506;-64
2023/01/10 12:08:00;;;;;;;21.65;6.75;;;7.20;99.90;;;;;;5052951;28;20043;-64
2023/01/10 12:10:27;;;;;;;17.98;6.90;;;7.10;99.90;;;;;;5052522;28;20367;-64
2023/01/10 12:12:59;;;;;;;23.33;6.72;;;7.10;99.90;;;;;;5053242;28;20124;-64
2023/01/10 12:15:30;;;;;;;21.52;6.78;;;7.10;99.90;;;;;;5051691;28;20536;-64
2023/01/10 12:18:01;;;;;;;23.23;6.68;;;7.10;99.90;;;;;;5052171;28;20421;-64
2023/01/10 12:20:33;;;;;;;26.45;9.05;;;7.10;99.90;;;;;;5051985;28;20504;-64
2023/01/10 12:23:04;;;;;;;19.55;7.50;;;7.00;99.90;;;;;;5053046;28;20045;-64
2023/01/10 12:25:37;;;;;;;21.75;6.05;;;7.00;99.90;;;;;;5051032;28;20045;-64
2023/01/10 12:28:05;;;;;;;20.35;6.50;;;7.00;99.90;;;;;;5052173;28;20090;-64
2023/01/10 12:30:38;;;;;;;23.10;6.82;;;7.00;99.90;;;;;;5052016;28;20040;-64
2023/01/10 12:33:10;;;;;;;22.50;7.03;;;6.90;99.90;;;;;;5068415;28;20084;-64
2023/01/10 12:35:38;;;;;;;20.77;7.57;;;6.90;99.90;;;;;;5067822;28;20032;-64
2023/01/10 12:44:35;;;;;;;23.05;7.57;;;6.80;99.90;;;;;;5050337;28;20064;-64
2023/01/10 12:47:38;;;;;;;22.02;7.60;;;6.80;99.90;;;;;;5051793;28;20041;-64
2023/01/10 12:50:12;;;;;;;23.20;7.20;;;6.90;99.90;;;;;;5052019;28;20045;-64
2023/01/10 12:52:51;;;;;;;16.30;6.43;;;6.80;99.90;;;;;;5050565;28;20115;-64
2023/01/10 12:55:22;;;;;;;22.67;8.13;;;6.80;99.90;;;;;;5052305;28;20041;-64
2023/01/10 12:57:54;;;;;;;26.65;7.22;;;6.80;99.90;;;;;;5052191;28;20486;-64
2023/01/10 13:00:28;;;;;;;20.67;7.75;;;6.80;99.90;;;;;;5050215;28;20551;-64
2023/01/10 13:02:56;;;;;;;15.30;5.45;;;6.80;99.90;;;;;;5051283;28;20048;-64
2023/01/10 13:05:28;;;;;;;20.92;8.93;;;6.80;99.90;;;;;;5050743;28;20521;-64
2023/01/10 13:08:01;;;;;;;25.70;7.90;;;6.80;99.90;;;;;;5050591;28;20072;-65
2023/01/10 13:10:28;;;;;;;12.73;6.50;;;6.80;99.90;;;;;;5051235;28;20040;-63
2023/01/10 13:12:58;;;;;;;20.23;7.45;;;6.80;99.90;;;;;;5047463;28;20040;-64
2023/01/10 13:16:00;;;;;;;20.45;8.05;;;6.80;99.90;;;;;;5057504;28;20056;-65
2023/01/10 13:18:28;;;;;;;24.55;7.38;;;6.70;99.90;;;;;;5018787;28;20061;-65